Time;durP1;ratioP1;P1;durP2;ratioP2;P2;SDS_P1;SDS_P2;PMS_P1;PMS_P2;Temp;Humidity;BMP_temperature;BMP_pressure;BME280_temperature;BME280_humidity;BME280_pressure;Samples;Min_cycle;Max_cycle;Signal;HPM_P1;HPM_P2
2023/07/13 00:01:49;;;;;;;2.83;1.80;;;22.70;99.90;;;;;;5070805;28;20264;-76
2023/07/13 00:04:16;;;;;;;4.05;2.50;;;22.80;99.90;;;;;;5070545;28;20206;-76
2023/07/13 00:06:44;;;;;;;2.17;1.85;;;22.80;99.90;;;;;;5070831;28;20262;-70
2023/07/13 00:09:13;;;;;;;2.28;2.08;;;22.80;99.90;;;;;;5070847;28;20209;-75
2023/07/13 00:11:40;;;;;;;2.75;2.03;;;22.80;99.90;;;;;;5070591;28;20240;-70
2023/07/13 00:14:07;;;;;;;4.88;2.70;;;22.70;99.90;;;;;;5071316;28;20560;-76
2023/07/13 00:16:35;;;;;;;3.72;2.05;;;22.70;99.90;;;;;;5070245;28;20242;-71
2023/07/13 00:19:02;;;;;;;2.42;2.03;;;22.70;99.90;;;;;;5070896;28;20700;-77
2023/07/13 00:21:29;;;;;;;2.80;2.35;;;22.60;99.90;;;;;;5070624;28;20241;-70
2023/07/13 00:23:56;;;;;;;3.60;2.13;;;22.50;99.90;;;;;;5070628;28;20241;-76
2023/07/13 00:26:24;;;;;;;4.28;2.13;;;22.60;99.90;;;;;;5070323;28;20241;-77
2023/07/13 00:28:51;;;;;;;2.83;1.80;;;22.50;99.90;;;;;;5070561;28;20215;-76
2023/07/13 00:31:18;;;;;;;4.18;2.83;;;22.50;99.90;;;;;;5070161;28;20265;-70
2023/07/13 00:33:45;;;;;;;2.30;2.05;;;22.50;99.90;;;;;;5070441;28;20214;-71
2023/07/13 00:36:12;;;;;;;2.10;1.80;;;22.60;99.90;;;;;;5070233;28;20232;-71
2023/07/13 00:38:39;;;;;;;3.40;2.28;;;22.60;99.90;;;;;;5070749;28;20202;-70
2023/07/13 00:41:06;;;;;;;2.03;1.80;;;22.60;99.90;;;;;;5070771;28;20232;-76
2023/07/13 00:43:35;;;;;;;2.85;1.77;;;22.70;99.90;;;;;;5070273;28;20242;-74
2023/07/13 00:46:25;;;;;;;5.20;2.17;;;22.70;99.90;;;;;;5070286;28;20234;-74
2023/07/13 00:48:53;;;;;;;2.45;1.90;;;22.70;99.90;;;;;;5070553;28;20582;-70
2023/07/13 00:51:26;;;;;;;1.85;1.67;;;22.70;99.90;;;;;;5066652;28;20309;-70
2023/07/13 00:53:55;;;;;;;2.08;1.95;;;22.80;99.90;;;;;;5060834;28;20259;-76
2023/07/13 00:56:23;;;;;;;2.25;1.92;;;22.80;99.90;;;;;;5070012;28;20217;-76
2023/07/13 00:58:51;;;;;;;3.03;2.28;;;22.80;99.90;;;;;;5070385;28;20244;-77
2023/07/13 01:01:19;;;;;;;2.50;1.75;;;22.80;99.90;;;;;;5069775;28;20651;-70
2023/07/13 01:03:46;;;;;;;2.83;1.60;;;22.70;99.90;;;;;;5070410;28;20233;-76
2023/07/13 01:06:13;;;;;;;2.90;1.73;;;22.70;99.90;;;;;;5070005;28;20202;-73
2023/07/13 01:08:41;;;;;;;2.10;1.77;;;22.60;99.90;;;;;;5070700;28;20252;-70
2023/07/13 01:11:08;;;;;;;1.38;1.27;;;22.60;99.90;;;;;;5074366;28;20238;-75
2023/07/13 01:13:35;;;;;;;6.55;1.83;;;22.60;99.90;;;;;;5073940;28;20661;-73
2023/07/13 01:16:14;;;;;;;2.55;2.15;;;22.50;99.90;;;;;;5074037;28;20202;-77
2023/07/13 01:18:40;;;;;;;3.08;1.92;;;22.60;99.90;;;;;;5073858;28;20584;-71
2023/07/13 01:21:09;;;;;;;2.40;1.45;;;22.60;99.90;;;;;;5074729;28;20256;-77
2023/07/13 01:23:36;;;;;;;2.40;1.30;;;22.60;99.90;;;;;;5074008;28;20261;-75
2023/07/13 01:26:03;;;;;;;2.03;1.65;;;22.60;99.90;;;;;;5074122;28;20251;-77
2023/07/13 01:28:30;;;;;;;2.97;2.13;;;22.60;99.90;;;;;;5073581;28;20205;-76
2023/07/13 01:30:59;;;;;;;7.63;2.05;;;22.60;99.90;;;;;;5073788;28;20230;-71
2023/07/13 01:33:27;;;;;;;3.42;1.92;;;22.70;99.90;;;;;;5073469;28;20678;-76
2023/07/13 01:35:54;;;;;;;3.20;1.17;;;22.60;99.90;;;;;;5060060;28;20238;-71
2023/07/13 01:38:25;;;;;;;4.82;2.00;;;22.60;99.90;;;;;;5073645;28;20202;-76
2023/07/13 01:40:52;;;;;;;2.67;1.92;;;22.60;99.90;;;;;;5073548;28;20743;-70
2023/07/13 01:43:20;;;;;;;1.95;1.85;;;22.50;99.90;;;;;;5073142;28;20238;-76
2023/07/13 01:45:47;;;;;;;5.57;2.53;;;22.50;99.90;;;;;;5073317;28;20241;-70
2023/07/13 01:48:14;;;;;;;3.85;2.00;;;22.60;99.90;;;;;;5073213;28;20648;-70
2023/07/13 01:50:41;;;;;;;1.85;1.65;;;22.60;99.90;;;;;;5070393;28;20274;-71
2023/07/13 01:53:08;;;;;;;3.20;1.80;;;22.50;99.90;;;;;;5069426;28;20238;-76
2023/07/13 01:55:38;;;;;;;3.40;2.20;;;22.50;99.90;;;;;;5073279;28;20214;-72
2023/07/13 01:58:06;;;;;;;4.82;2.63;;;22.30;99.90;;;;;;5058826;28;20238;-74
2023/07/13 02:00:33;;;;;;;1.95;1.70;;;22.30;99.90;;;;;;5058873;28;20215;-70
2023/07/13 02:03:00;;;;;;;2.67;2.20;;;22.30;99.90;;;;;;5073715;28;20202;-71
2023/07/13 02:05:27;;;;;;;4.13;1.85;;;22.20;99.90;;;;;;5073058;28;20202;-71
2023/07/13 02:07:54;;;;;;;2.25;1.60;;;22.10;99.90;;;;;;5067521;28;20238;-70
2023/07/13 02:10:21;;;;;;;1.65;1.55;;;22.20;99.90;;;;;;5064484;28;20241;-71
2023/07/13 02:12:50;;;;;;;4.18;1.80;;;22.20;99.90;;;;;;5072664;28;20687;-71
2023/07/13 02:15:18;;;;;;;2.88;1.95;;;22.10;99.90;;;;;;5072814;28;20210;-73
2023/07/13 02:17:45;;;;;;;4.95;2.10;;;22.00;99.90;;;;;;5072793;28;20233;-72
2023/07/13 02:20:12;;;;;;;4.32;2.33;;;22.00;99.90;;;;;;5072819;28;20682;-70
2023/07/13 02:22:39;;;;;;;2.97;2.25;;;22.00;99.90;;;;;;5072321;28;20704;-70
2023/07/13 02:25:06;;;;;;;5.55;1.75;;;22.00;99.90;;;;;;5066517;28;20253;-71
2023/07/13 02:27:34;;;;;;;4.82;2.20;;;22.00;99.90;;;;;;5065522;28;20212;-71
2023/07/13 02:30:02;;;;;;;3.22;1.63;;;22.00;99.90;;;;;;5072690;28;20566;-71
2023/07/13 02:32:29;;;;;;;2.20;2.00;;;21.80;99.90;;;;;;5072380;28;20273;-70
2023/07/13 02:34:56;;;;;;;3.22;2.05;;;21.80;99.90;;;;;;5072700;28;20244;-71
2023/07/13 02:37:23;;;;;;;2.17;2.08;;;21.90;99.90;;;;;;5072302;28;20256;-70
2023/07/13 02:39:50;;;;;;;4.30;2.05;;;21.70;99.90;;;;;;5072330;28;20652;-70
2023/07/13 02:42:17;;;;;;;2.40;1.70;;;21.70;99.90;;;;;;5072302;28;20249;-71
2023/07/13 02:44:44;;;;;;;2.35;1.88;;;21.70;99.90;;;;;;5072402;28;20716;-70
2023/07/13 02:47:12;;;;;;;5.80;2.10;;;21.60;99.90;;;;;;5072662;28;20260;-71
2023/07/13 02:49:40;;;;;;;4.55;1.75;;;21.60;99.90;;;;;;5072768;28;20206;-70
2023/07/13 02:52:07;;;;;;;3.95;2.22;;;21.50;99.90;;;;;;5072320;28;20221;-71
2023/07/13 02:54:34;;;;;;;3.95;1.88;;;21.50;99.90;;;;;;5072263;28;20245;-75
2023/07/13 02:57:01;;;;;;;3.15;1.70;;;21.40;99.90;;;;;;5071884;28;20260;-76
2023/07/13 02:59:28;;;;;;;2.53;1.42;;;21.40;99.90;;;;;;5063562;28;20234;-75
2023/07/13 03:01:55;;;;;;;5.47;1.92;;;21.50;99.90;;;;;;5066887;28;20246;-71
2023/07/13 03:04:23;;;;;;;3.35;1.77;;;21.50;99.90;;;;;;5072012;28;20202;-76
2023/07/13 03:06:50;;;;;;;2.65;1.65;;;21.50;99.90;;;;;;5071925;28;20234;-76
2023/07/13 03:09:17;;;;;;;2.63;1.60;;;21.50;99.90;;;;;;5071420;28;20666;-76
2023/07/13 03:11:45;;;;;;;2.30;1.73;;;21.50;99.90;;;;;;5071961;28;20281;-73
2023/07/13 03:14:11;;;;;;;3.97;2.28;;;21.40;99.90;;;;;;5071685;28;20212;-69
2023/07/13 03:16:38;;;;;;;2.15;1.75;;;21.20;99.90;;;;;;5072266;28;20238;-70
2023/07/13 03:19:05;;;;;;;2.10;1.80;;;21.10;99.90;;;;;;5071866;28;20686;-70
2023/07/13 03:21:34;;;;;;;4.63;2.05;;;20.90;99.90;;;;;;5071445;28;20249;-77
2023/07/13 03:24:00;;;;;;;5.65;2.15;;;20.90;99.90;;;;;;5071939;28;20241;-70
2023/07/13 03:26:27;;;;;;;3.22;1.30;;;21.00;99.90;;;;;;5071187;28;20251;-76
2023/07/13 03:28:54;;;;;;;4.05;1.40;;;21.10;99.90;;;;;;5071591;28;20226;-69
2023/07/13 03:31:23;;;;;;;2.38;1.85;;;21.10;99.90;;;;;;5071062;28;20258;-76
2023/07/13 03:33:50;;;;;;;3.38;1.70;;;21.10;99.90;;;;;;5071304;28;20218;-70
2023/07/13 03:36:20;;;;;;;2.25;1.60;;;21.10;99.90;;;;;;5071019;28;20216;-78
2023/07/13 03:38:49;;;;;;;4.45;1.77;;;21.00;99.90;;;;;;5071555;28;20704;-70
2023/07/13 03:41:17;;;;;;;4.63;2.33;;;20.90;99.90;;;;;;5070764;28;20209;-75
2023/07/13 03:43:44;;;;;;;1.92;1.65;;;21.00;99.90;;;;;;5071479;28;20245;-76
2023/07/13 03:46:11;;;;;;;7.53;1.33;;;21.00;99.90;;;;;;5071073;28;20241;-70
2023/07/13 03:48:39;;;;;;;2.53;2.33;;;20.90;99.90;;;;;;5071672;28;20242;-77
2023/07/13 03:51:06;;;;;;;3.08;1.90;;;20.80;99.90;;;;;;5071408;28;20226;-70
2023/07/13 03:53:33;;;;;;;4.30;1.92;;;20.80;99.90;;;;;;5070731;28;20677;-76
2023/07/13 03:56:01;;;;;;;2.97;1.80;;;20.90;99.90;;;;;;5071294;28;20245;-71
2023/07/13 03:58:31;;;;;;;5.18;1.58;;;20.90;99.90;;;;;;5070198;28;20202;-70
2023/07/13 04:00:59;;;;;;;2.30;1.60;;;20.90;99.90;;;;;;5057998;28;20229;-70
2023/07/13 04:03:28;;;;;;;3.83;1.70;;;20.80;99.90;;;;;;5070578;28;20248;-70
2023/07/13 04:05:59;;;;;;;4.05;1.70;;;20.70;99.90;;;;;;5070841;28;20232;-69
2023/07/13 04:08:27;;;;;;;3.70;1.65;;;20.70;99.90;;;;;;5070508;28;20260;-70
2023/07/13 04:10:54;;;;;;;4.50;1.55;;;20.70;99.90;;;;;;5071243;28;20645;-70
2023/07/13 04:13:23;;;;;;;4.43;1.58;;;20.50;99.90;;;;;;5070506;28;20233;-70
2023/07/13 04:15:50;;;;;;;2.88;2.22;;;20.50;99.90;;;;;;5070613;28;20244;-73
2023/07/13 04:18:17;;;;;;;1.95;1.77;;;20.40;99.90;;;;;;5070760;28;20245;-76
2023/07/13 04:20:44;;;;;;;1.63;1.50;;;20.50;99.90;;;;;;5070872;28;20241;-70
2023/07/13 04:23:11;;;;;;;3.53;1.45;;;20.40;99.90;;;;;;5070546;28;20210;-69
2023/07/13 04:25:38;;;;;;;2.78;1.70;;;20.50;99.90;;;;;;5071008;28;20260;-70
2023/07/13 04:28:05;;;;;;;2.30;1.55;;;20.50;99.90;;;;;;5056700;28;20234;-70
2023/07/13 04:30:34;;;;;;;3.30;1.35;;;20.50;99.90;;;;;;5070257;28;20712;-76
2023/07/13 04:33:00;;;;;;;2.38;1.33;;;20.50;99.90;;;;;;5070178;28;20295;-76
2023/07/13 04:35:28;;;;;;;4.78;2.17;;;20.50;99.90;;;;;;5070564;28;20261;-75
2023/07/13 04:37:55;;;;;;;4.30;2.15;;;20.40;99.90;;;;;;5070354;28;20209;-69
2023/07/13 04:40:22;;;;;;;3.88;1.67;;;20.40;99.90;;;;;;5070238;28;20234;-77
2023/07/13 04:42:48;;;;;;;2.92;1.50;;;20.40;99.90;;;;;;5070343;28;20249;-69
2023/07/13 04:45:17;;;;;;;2.25;1.90;;;20.40;99.90;;;;;;5069952;28;20289;-76
2023/07/13 04:47:45;;;;;;;2.30;1.52;;;20.40;99.90;;;;;;5070466;28;20202;-76
2023/07/13 04:50:18;;;;;;;3.88;1.73;;;20.30;99.90;;;;;;5070197;28;20230;-69
2023/07/13 04:52:45;;;;;;;3.45;1.80;;;20.40;99.90;;;;;;5070294;28;20237;-70
2023/07/13 04:55:12;;;;;;;2.88;1.77;;;20.40;99.90;;;;;;5069937;28;20241;-70
2023/07/13 04:57:39;;;;;;;2.47;1.45;;;20.40;99.90;;;;;;5070487;28;20241;-70
2023/07/13 05:00:07;;;;;;;2.45;1.33;;;20.50;99.90;;;;;;5056802;28;20245;-72
2023/07/13 05:02:35;;;;;;;4.40;1.10;;;20.50;99.90;;;;;;5055822;28;20644;-77
2023/07/13 05:05:03;;;;;;;3.50;1.50;;;20.50;99.90;;;;;;5070248;28;20206;-71
2023/07/13 05:07:32;;;;;;;3.53;1.30;;;20.50;99.90;;;;;;5069505;28;20241;-71
2023/07/13 05:09:59;;;;;;;4.15;1.75;;;20.40;99.90;;;;;;5070248;28;20218;-69
2023/07/13 05:12:26;;;;;;;2.22;1.38;;;20.40;99.90;;;;;;5069556;28;20729;-69
2023/07/13 05:14:53;;;;;;;3.08;1.67;;;20.40;99.90;;;;;;5070514;28;20253;-69
2023/07/13 05:17:20;;;;;;;3.50;2.08;;;20.50;99.90;;;;;;5069792;28;20298;-76
2023/07/13 05:19:47;;;;;;;3.28;1.83;;;20.50;99.90;;;;;;5070242;28;20237;-69
2023/07/13 05:22:15;;;;;;;1.77;1.58;;;20.60;99.90;;;;;;5069453;28;20654;-70
2023/07/13 05:24:42;;;;;;;1.65;1.15;;;20.60;99.90;;;;;;5056474;28;20620;-69
2023/07/13 05:27:09;;;;;;;2.05;1.58;;;20.70;99.90;;;;;;5070562;28;20234;-74
2023/07/13 05:29:36;;;;;;;6.85;1.90;;;20.70;99.90;;;;;;5069826;28;20242;-71
2023/07/13 05:32:03;;;;;;;1.85;1.27;;;20.80;99.90;;;;;;5069862;28;20680;-69
2023/07/13 05:34:30;;;;;;;5.15;1.83;;;20.80;99.90;;;;;;5069455;28;20305;-75
2023/07/13 05:36:57;;;;;;;4.18;2.00;;;20.80;99.90;;;;;;5069833;28;20693;-70
2023/07/13 05:39:26;;;;;;;2.22;1.50;;;21.00;99.90;;;;;;5069308;28;20264;-76
2023/07/13 05:41:53;;;;;;;4.10;1.92;;;21.00;99.90;;;;;;5069925;28;20669;-70
2023/07/13 05:44:20;;;;;;;2.78;1.85;;;21.10;99.90;;;;;;5069750;28;20249;-69
2023/07/13 05:46:47;;;;;;;4.43;1.70;;;21.10;99.90;;;;;;5070077;28;20244;-69
2023/07/13 05:49:14;;;;;;;2.00;1.38;;;21.30;99.90;;;;;;5069478;28;20677;-69
2023/07/13 05:51:40;;;;;;;2.65;1.50;;;21.40;99.90;;;;;;5069328;28;20269;-69
2023/07/13 05:54:07;;;;;;;3.08;1.90;;;21.50;99.90;;;;;;5070508;28;20252;-75
2023/07/13 05:56:36;;;;;;;2.00;1.15;;;21.40;99.90;;;;;;5070383;28;20245;-68
2023/07/13 05:59:03;;;;;;;2.00;1.48;;;21.50;99.90;;;;;;5068464;28;20234;-76
2023/07/13 06:01:31;;;;;;;3.33;1.45;;;21.60;99.90;;;;;;5064377;28;20241;-75
2023/07/13 06:03:58;;;;;;;2.22;1.10;;;21.70;99.90;;;;;;5072995;28;20688;-69
2023/07/13 06:06:25;;;;;;;4.35;1.65;;;21.70;99.90;;;;;;5072843;28;20682;-76
2023/07/13 06:08:52;;;;;;;3.45;1.55;;;21.80;99.90;;;;;;5073300;28;20241;-70
2023/07/13 06:11:21;;;;;;;2.15;1.20;;;22.00;99.90;;;;;;5072781;28;20238;-74
2023/07/13 06:13:50;;;;;;;2.25;1.30;;;22.20;99.90;;;;;;5073249;28;20249;-74
2023/07/13 06:16:17;;;;;;;5.93;1.60;;;22.30;99.90;;;;;;5072714;28;20670;-70
2023/07/13 06:18:44;;;;;;;4.32;1.00;;;22.30;99.90;;;;;;5073154;28;20241;-75
2023/07/13 06:21:14;;;;;;;3.25;1.33;;;22.50;99.90;;;;;;5072867;28;20241;-69
2023/07/13 06:23:41;;;;;;;4.32;1.30;;;22.50;99.90;;;;;;5073101;28;20242;-70
2023/07/13 06:26:08;;;;;;;3.63;1.45;;;22.40;99.90;;;;;;5073137;28;20237;-69
2023/07/13 06:28:36;;;;;;;1.27;1.20;;;22.40;99.90;;;;;;5072868;28;20595;-75
2023/07/13 06:31:07;;;;;;;2.22;1.42;;;22.40;99.90;;;;;;5072618;28;20241;-75
2023/07/13 06:33:34;;;;;;;3.97;1.10;;;22.10;99.90;;;;;;5072088;28;20744;-76
2023/07/13 06:36:02;;;;;;;1.75;1.48;;;22.00;99.90;;;;;;5072523;28;20237;-69
2023/07/13 06:38:29;;;;;;;3.50;1.70;;;21.80;99.90;;;;;;5072217;28;20238;-74
2023/07/13 06:40:56;;;;;;;4.30;1.67;;;21.90;99.90;;;;;;5072660;28;20217;-70
2023/07/13 06:43:24;;;;;;;4.90;1.60;;;22.00;99.90;;;;;;5072473;28;20230;-75
2023/07/13 06:45:51;;;;;;;2.97;1.27;;;22.10;99.90;;;;;;5072575;28;20244;-75
2023/07/13 06:48:21;;;;;;;4.03;1.17;;;22.20;99.90;;;;;;5071679;28;20686;-69
2023/07/13 06:50:50;;;;;;;5.57;2.05;;;22.20;99.90;;;;;;5072642;28;20206;-69
2023/07/13 06:53:19;;;;;;;3.08;1.20;;;22.30;99.90;;;;;;5071906;28;20240;-69
2023/07/13 06:55:46;;;;;;;1.90;1.30;;;22.30;99.90;;;;;;5072325;28;20704;-69
2023/07/13 06:58:13;;;;;;;2.47;1.50;;;22.30;99.90;;;;;;5071619;28;20214;-69
2023/07/13 07:00:41;;;;;;;3.42;1.45;;;22.20;99.90;;;;;;5057973;28;20241;-69
2023/07/13 07:03:08;;;;;;;5.68;1.77;;;22.30;99.90;;;;;;5072599;28;20210;-69
2023/07/13 07:05:36;;;;;;;4.57;1.00;;;22.40;99.90;;;;;;5071982;28;20207;-69
2023/07/13 07:08:03;;;;;;;1.77;1.10;;;22.30;99.90;;;;;;5071825;28;20244;-69
2023/07/13 07:10:31;;;;;;;2.78;0.95;;;22.50;99.90;;;;;;5071445;28;21175;-75
2023/07/13 07:12:58;;;;;;;4.47;1.00;;;22.40;99.90;;;;;;5071954;28;20697;-74
2023/07/13 07:15:25;;;;;;;4.75;1.75;;;22.40;99.90;;;;;;5071788;28;20241;-70
2023/07/13 07:17:52;;;;;;;1.38;1.05;;;22.40;99.90;;;;;;5057751;28;20277;-75
2023/07/13 07:20:20;;;;;;;2.00;1.13;;;22.30;99.90;;;;;;5071533;28;20237;-73
2023/07/13 07:22:48;;;;;;;5.40;1.85;;;22.20;99.90;;;;;;5071665;28;20206;-70
2023/07/13 07:25:15;;;;;;;3.67;1.80;;;22.10;99.90;;;;;;5071276;28;20233;-69
2023/07/13 07:27:42;;;;;;;3.67;1.45;;;22.20;99.90;;;;;;5071406;28;20653;-74
2023/07/13 07:30:10;;;;;;;1.70;1.05;;;22.50;99.90;;;;;;5072337;28;20241;-71
2023/07/13 07:32:37;;;;;;;1.92;1.23;;;22.60;99.90;;;;;;5071443;28;20230;-68
2023/07/13 07:35:04;;;;;;;3.47;1.55;;;22.60;99.90;;;;;;5071774;28;20236;-69
2023/07/13 07:37:31;;;;;;;3.10;1.10;;;22.60;99.90;;;;;;5070989;28;20249;-69
2023/07/13 07:40:00;;;;;;;1.27;0.93;;;22.40;99.90;;;;;;5071429;28;20233;-70
2023/07/13 07:42:27;;;;;;;5.20;1.65;;;22.70;99.90;;;;;;5071325;28;20304;-70
2023/07/13 07:44:54;;;;;;;1.80;1.08;;;22.70;99.90;;;;;;5071317;28;20700;-69
2023/07/13 07:47:20;;;;;;;1.58;0.98;;;23.00;99.90;;;;;;5070806;28;20254;-70
2023/07/13 07:49:47;;;;;;;1.27;1.00;;;23.40;99.90;;;;;;5071219;28;20289;-69
2023/07/13 07:52:14;;;;;;;1.13;0.90;;;23.60;99.90;;;;;;5070768;28;20265;-69
2023/07/13 07:54:41;;;;;;;2.45;1.40;;;24.10;99.90;;;;;;5070986;28;20679;-70
2023/07/13 07:57:09;;;;;;;1.17;0.95;;;24.20;99.90;;;;;;5071750;28;20240;-69
2023/07/13 07:59:38;;;;;;;2.35;1.13;;;24.40;99.90;;;;;;5061268;28;20211;-71
2023/07/13 08:02:05;;;;;;;2.00;0.93;;;24.70;99.90;;;;;;5066634;28;20653;-70
2023/07/13 08:04:32;;;;;;;3.33;0.90;;;24.60;99.90;;;;;;5070743;28;20246;-70
2023/07/13 08:07:00;;;;;;;2.63;0.80;;;24.70;99.90;;;;;;5071049;28;20295;-70
2023/07/13 08:09:27;;;;;;;3.85;1.67;;;24.60;99.90;;;;;;5070734;28;20628;-70
2023/07/13 08:11:54;;;;;;;3.67;1.02;;;24.20;99.90;;;;;;5071035;28;20241;-69
2023/07/13 08:14:22;;;;;;;2.30;1.42;;;23.80;99.90;;;;;;5070201;28;20597;-72
2023/07/13 08:16:49;;;;;;;2.10;0.82;;;23.50;99.90;;;;;;5070672;28;20241;-69
2023/07/13 08:19:16;;;;;;;2.63;1.33;;;23.20;99.90;;;;;;5069432;28;20238;-69
2023/07/13 08:21:43;;;;;;;2.88;1.30;;;23.50;99.90;;;;;;5071043;28;20238;-69
2023/07/13 08:24:10;;;;;;;1.55;0.90;;;23.60;99.90;;;;;;5071100;28;20282;-69
2023/07/13 08:26:37;;;;;;;2.63;1.05;;;23.60;99.90;;;;;;5071077;28;20242;-69
2023/07/13 08:29:04;;;;;;;3.70;1.13;;;23.60;99.90;;;;;;5070617;28;20238;-73
2023/07/13 08:31:32;;;;;;;2.25;1.45;;;23.60;99.90;;;;;;5069980;28;20244;-70
2023/07/13 08:33:59;;;;;;;1.42;0.82;;;23.70;99.90;;;;;;5070102;28;20273;-70
2023/07/13 08:36:27;;;;;;;3.78;2.38;;;23.60;99.90;;;;;;5069785;28;20214;-70
2023/07/13 08:38:54;;;;;;;2.35;1.35;;;23.50;99.90;;;;;;5070608;28;20209;-69
2023/07/13 08:41:21;;;;;;;2.38;0.80;;;23.70;99.90;;;;;;5070109;28;20229;-70
2023/07/13 08:43:51;;;;;;;0.95;0.95;;;24.10;99.90;;;;;;5070305;28;20241;-69
2023/07/13 08:46:22;;;;;;;3.00;1.35;;;24.50;99.90;;;;;;5069823;28;20246;-70
2023/07/13 08:48:53;;;;;;;3.83;0.90;;;24.50;99.90;;;;;;5070627;28;20666;-68
2023/07/13 08:51:33;;;;;;;2.30;1.25;;;25.30;99.90;;;;;;5069833;28;20579;-72
2023/07/13 08:54:03;;;;;;;2.55;0.80;;;25.40;99.90;;;;;;5070205;28;20702;-70
2023/07/13 08:56:32;;;;;;;3.65;1.10;;;25.20;99.90;;;;;;5070054;28;20238;-71
2023/07/13 08:59:02;;;;;;;1.77;0.80;;;25.40;99.90;;;;;;5065622;28;20292;-71
2023/07/13 09:01:33;;;;;;;1.63;1.00;;;25.70;99.90;;;;;;5060917;28;20210;-72
2023/07/13 09:04:09;;;;;;;1.52;0.90;;;25.70;99.90;;;;;;5070256;28;20625;-70
2023/07/13 09:06:43;;;;;;;1.23;0.90;;;26.10;99.90;;;;;;5070226;28;20240;-70
2023/07/13 09:09:21;;;;;;;1.25;0.85;;;26.10;99.90;;;;;;5070404;28;20683;-74
2023/07/13 09:11:53;;;;;;;1.00;0.90;;;28.60;99.90;;;;;;5070427;28;20259;-75
2023/07/13 09:14:36;;;;;;;2.15;0.85;;;27.40;99.90;;;;;;5069389;28;20325;-73
2023/07/13 09:17:05;;;;;;;0.73;0.70;;;27.10;99.90;;;;;;5070401;28;20248;-71
2023/07/13 09:19:35;;;;;;;1.65;0.95;;;27.20;99.90;;;;;;5069694;28;20245;-69
2023/07/13 09:22:04;;;;;;;3.35;1.02;;;27.20;99.90;;;;;;5070092;28;20639;-70
2023/07/13 09:24:38;;;;;;;3.03;1.65;;;26.80;99.90;;;;;;5069481;28;20721;-71
2023/07/13 09:27:13;;;;;;;2.30;1.10;;;26.20;99.90;;;;;;5070284;28;20217;-75
2023/07/13 09:29:48;;;;;;;1.73;1.08;;;26.20;99.90;;;;;;5070124;28;20230;-70
2023/07/13 09:32:20;;;;;;;3.65;1.17;;;26.50;99.90;;;;;;5073171;28;20669;-69
2023/07/13 09:34:54;;;;;;;1.88;1.30;;;26.60;99.90;;;;;;5073994;28;20258;-75
2023/07/13 09:37:22;;;;;;;2.97;1.30;;;28.10;99.90;;;;;;5073492;28;20214;-69
2023/07/13 09:39:52;;;;;;;2.10;0.98;;;30.50;99.90;;;;;;5073718;28;20202;-76
2023/07/13 09:42:21;;;;;;;2.90;0.88;;;34.70;99.90;;;;;;5073116;28;20209;-70
2023/07/13 09:44:56;;;;;;;1.85;1.00;;;33.70;99.90;;;;;;5073361;28;20255;-75
2023/07/13 09:47:26;;;;;;;1.08;0.98;;;31.30;99.90;;;;;;5073547;28;20244;-76
2023/07/13 09:49:58;;;;;;;3.83;1.17;;;29.50;99.90;;;;;;5073576;28;20233;-73
2023/07/13 09:52:27;;;;;;;4.80;1.70;;;27.90;99.90;;;;;;5073149;28;20202;-74
2023/07/13 09:54:58;;;;;;;1.73;0.98;;;27.00;99.90;;;;;;5073545;28;21894;-76
2023/07/13 09:57:27;;;;;;;1.90;1.30;;;26.60;99.90;;;;;;5073064;28;20684;-76
2023/07/13 09:59:58;;;;;;;3.90;1.08;;;27.60;99.90;;;;;;5061569;28;20230;-75
2023/07/13 10:02:28;;;;;;;1.08;0.93;;;29.90;99.90;;;;;;5071903;28;20247;-75
2023/07/13 10:05:03;;;;;;;1.50;1.15;;;28.50;99.90;;;;;;5073776;28;20213;-75
2023/07/13 10:07:30;;;;;;;3.70;1.98;;;27.60;99.90;;;;;;5072905;28;20206;-70
2023/07/13 10:10:00;;;;;;;3.88;1.70;;;27.20;99.90;;;;;;5073486;28;20241;-70
2023/07/13 10:12:28;;;;;;;3.75;1.92;;;31.80;99.90;;;;;;5072590;28;20209;-70
2023/07/13 10:14:57;;;;;;;3.13;1.20;;;31.20;99.90;;;;;;5073256;28;20262;-70
2023/07/13 10:17:30;;;;;;;1.52;1.40;;;29.10;99.90;;;;;;5072498;28;20252;-70
2023/07/13 10:20:04;;;;;;;2.50;1.58;;;28.00;99.90;;;;;;5073071;28;20216;-70
2023/07/13 10:22:39;;;;;;;1.85;1.10;;;27.20;99.90;;;;;;5072209;28;20255;-74
2023/07/13 10:25:17;;;;;;;2.53;1.30;;;26.80;99.90;;;;;;5073517;28;20213;-75
2023/07/13 10:27:44;;;;;;;2.42;1.52;;;26.30;99.90;;;;;;5072907;28;20198;-75
2023/07/13 10:30:17;;;;;;;2.15;1.45;;;26.30;99.90;;;;;;5072965;28;20233;-70
2023/07/13 10:32:46;;;;;;;1.67;1.58;;;26.40;99.90;;;;;;5072457;28;20694;-76
2023/07/13 10:35:17;;;;;;;2.65;1.02;;;26.30;99.90;;;;;;5072770;28;20205;-70
2023/07/13 10:37:49;;;;;;;2.88;1.95;;;26.30;99.90;;;;;;5072873;28;20333;-71
2023/07/13 10:40:22;;;;;;;6.75;1.55;;;26.30;99.90;;;;;;5072082;28;20203;-73
2023/07/13 10:42:52;;;;;;;3.13;1.50;;;26.60;99.90;;;;;;5071648;28;20209;-70
2023/07/13 10:45:21;;;;;;;2.10;1.20;;;26.40;99.90;;;;;;5072286;28;20210;-70
2023/07/13 10:47:50;;;;;;;4.78;1.33;;;26.60;99.90;;;;;;5072598;28;20242;-71
2023/07/13 10:50:21;;;;;;;1.52;1.42;;;26.80;99.90;;;;;;5072479;28;20563;-71
2023/07/13 10:52:50;;;;;;;6.75;1.30;;;26.80;99.90;;;;;;5072544;28;20206;-71
2023/07/13 10:55:35;;;;;;;3.38;1.67;;;27.50;99.90;;;;;;5071925;28;20217;-70
2023/07/13 10:58:04;;;;;;;1.05;0.95;;;27.90;99.90;;;;;;5072425;28;20205;-75
2023/07/13 11:00:47;;;;;;;1.98;1.20;;;27.80;99.90;;;;;;5057869;28;20241;-70
2023/07/13 11:03:16;;;;;;;6.65;1.88;;;28.00;99.90;;;;;;5071769;28;20213;-70
2023/07/13 11:05:45;;;;;;;2.47;1.20;;;28.30;99.90;;;;;;5072105;28;20659;-70
2023/07/13 11:08:36;;;;;;;1.92;1.63;;;28.10;99.90;;;;;;5072444;28;20233;-71
2023/07/13 11:11:06;;;;;;;2.00;1.17;;;27.90;99.90;;;;;;5071786;28;20234;-76
2023/07/13 11:13:58;;;;;;;2.03;1.02;;;28.00;99.90;;;;;;5071765;28;20230;-75
2023/07/13 11:16:43;;;;;;;13.05;11.15;;;27.70;99.90;;;;;;5059456;28;20217;-70
2023/07/13 11:19:39;;;;;;;2.28;1.25;;;27.50;99.90;;;;;;5071892;28;20210;-71
2023/07/13 11:22:23;;;;;;;5.00;2.08;;;27.30;99.90;;;;;;5072034;28;20586;-70
2023/07/13 11:24:58;;;;;;;2.92;1.40;;;26.90;99.90;;;;;;5071601;28;20202;-75
2023/07/13 11:27:37;;;;;;;3.17;1.10;;;27.10;99.90;;;;;;5070986;28;20576;-70
2023/07/13 11:30:22;;;;;;;2.45;0.95;;;27.70;99.90;;;;;;5071492;28;20209;-70
2023/07/13 11:32:52;;;;;;;1.60;1.00;;;28.10;99.90;;;;;;5071212;28;20723;-71
2023/07/13 11:35:24;;;;;;;2.13;1.65;;;28.00;99.90;;;;;;5070946;28;20241;-70
2023/07/13 11:37:53;;;;;;;3.35;1.27;;;27.90;99.90;;;;;;5070994;28;20573;-75
2023/07/13 11:40:23;;;;;;;4.45;2.45;;;27.60;99.90;;;;;;5071005;28;20206;-75
2023/07/13 11:42:50;;;;;;;2.28;1.23;;;27.30;99.90;;;;;;5071519;28;20260;-75
2023/07/13 11:45:23;;;;;;;2.47;1.70;;;26.80;99.90;;;;;;5071056;28;20237;-70
2023/07/13 11:47:51;;;;;;;3.42;1.70;;;26.60;99.90;;;;;;5071088;28;20245;-74
2023/07/13 11:50:20;;;;;;;2.70;1.73;;;26.80;99.90;;;;;;5071155;28;20258;-72
2023/07/13 11:52:48;;;;;;;2.65;1.20;;;27.00;99.90;;;;;;5071285;28;20210;-75
2023/07/13 11:55:19;;;;;;;2.20;1.10;;;26.80;99.90;;;;;;5069676;28;20318;-70
2023/07/13 11:57:51;;;;;;;4.35;1.20;;;27.00;99.90;;;;;;5071122;28;20248;-74
2023/07/13 12:00:22;;;;;;;2.58;1.33;;;27.30;99.90;;;;;;5056416;28;20383;-70
2023/07/13 12:02:52;;;;;;;2.40;1.60;;;27.10;99.90;;;;;;5071206;28;20241;-72
2023/07/13 12:05:20;;;;;;;2.30;1.45;;;26.60;99.90;;;;;;5070490;28;20258;-71
2023/07/13 12:07:48;;;;;;;2.03;1.60;;;26.40;99.90;;;;;;5070963;28;20217;-75
2023/07/13 12:10:21;;;;;;;3.30;1.10;;;26.30;99.90;;;;;;5070468;28;20712;-70
2023/07/13 12:12:51;;;;;;;1.73;1.25;;;26.40;99.90;;;;;;5071007;28;20249;-69
2023/07/13 12:15:18;;;;;;;2.17;1.50;;;26.50;99.90;;;;;;5070329;28;20234;-71
2023/07/13 12:17:46;;;;;;;5.00;1.55;;;26.80;99.90;;;;;;5070612;28;20206;-74
2023/07/13 12:20:22;;;;;;;1.58;1.17;;;27.00;99.90;;;;;;5070537;28;20263;-70
2023/07/13 12:22:51;;;;;;;3.03;1.00;;;27.00;99.90;;;;;;5070567;28;20213;-73
2023/07/13 12:25:21;;;;;;;1.08;0.85;;;27.00;99.90;;;;;;5070252;28;20249;-74
2023/07/13 12:27:49;;;;;;;12.98;2.83;;;27.20;99.90;;;;;;5070428;28;20249;-72
2023/07/13 12:30:26;;;;;;;6.05;1.40;;;27.00;99.90;;;;;;5070407;28;20198;-70
2023/07/13 12:33:01;;;;;;;2.33;1.02;;;27.10;99.90;;;;;;5070529;28;20218;-75
2023/07/13 12:35:35;;;;;;;2.00;1.27;;;27.40;99.90;;;;;;5070094;28;20323;-74
2023/07/13 12:38:02;;;;;;;1.10;0.77;;;27.50;99.90;;;;;;5070379;28;20202;-74
2023/07/13 12:40:36;;;;;;;1.42;1.30;;;27.60;99.90;;;;;;5070501;28;20234;-70
2023/07/13 12:43:04;;;;;;;1.20;1.02;;;27.60;99.90;;;;;;5070540;28;20294;-73
2023/07/13 12:45:31;;;;;;;1.63;1.08;;;27.60;99.90;;;;;;5070169;28;20253;-69
2023/07/13 12:48:00;;;;;;;3.20;1.33;;;27.40;99.90;;;;;;5070122;28;20252;-71
2023/07/13 12:50:34;;;;;;;1.52;0.98;;;27.70;99.90;;;;;;5070167;28;20293;-72
2023/07/13 12:53:04;;;;;;;2.30;1.65;;;28.10;99.90;;;;;;5070229;28;20701;-69
2023/07/13 12:55:33;;;;;;;2.00;1.10;;;28.00;99.90;;;;;;5070055;28;20244;-71